Terminal Aerodrome Forecast
Issued by NWS Newport/Morehead City, NC

Home | Current Version | Previous Version | Graphics & Text | Print | Product List | Glossary On
Versions: 1 2 3 4 5 6 7 8 9 10 11 12 13 14 15 16 17 18 19 20
528
FTUS42 KMHX 250302 AAB
TAFEWN
TAF AMD
KEWN 250302Z 2503/2524 11008KT 6SM SHRA SCT007 OVC020
      TEMPO 2504/2507 2SM +RA BKN007
     FM250700 08010G19KT 5SM SHRA SCT007 BKN015
     FM251500 22007KT 5SM -SHRA BKN015
     FM251800 28008KT P6SM VCSH BKN035=

USA.gov is the U.S. government's official web portal to all federal, state and local government web resources and services.